52F weather

Northwest Regional Airport
Roanoke, Texas, United States

Public forecast

Using degrees Fahrenheit for public forecast. Weather courtesy of forecast.io.

METAR (pilot weather report)

Closest report is Fort Worth Alliance Airport, 5.7 nm (10.6 km) SW. Retrieved 2019/09/22 05:53 UTC (52 minutes ago):

KAFW 220553Z 17017KT 10SM CLR 28/20 A2997 RMK AO2 SLP132 T02780200 10328 20278 403440250 50002

TAF (pilot weather forecast)

Closest forecast is Fort Worth Alliance Airport, 5.7 nm (10.6 km) SW. Retrieved 2019/09/22 06:22 UTC (23 minutes ago):

TAF KAFW 220520Z 2206/2306 15015KT P6SM FEW060 SCT200 FM221100 17013KT P6SM BKN025 BKN250 FM221500 18016KT P6SM SCT060